createdAt,value
2022-08-01T00:00:30.791Z,3.28
2022-08-01T00:03:16.490Z,3.13
2022-08-01T00:06:02.043Z,2.92
2022-08-01T00:08:47.872Z,2.78
2022-08-01T00:11:33.399Z,2.83
2022-08-01T00:14:18.968Z,3.40
2022-08-01T00:17:17.960Z,3.55
2022-08-01T00:20:06.281Z,3.03
2022-08-01T00:22:51.921Z,4.15
2022-08-01T00:25:37.715Z,3.85
2022-08-01T00:28:23.297Z,3.35
2022-08-01T00:31:09.216Z,3.50
2022-08-01T00:33:54.544Z,3.33
2022-08-01T00:36:40.116Z,3.78
2022-08-01T00:39:25.633Z,4.22
2022-08-01T00:42:12.534Z,3.92
2022-08-01T00:44:58.121Z,3.60
2022-08-01T00:47:43.569Z,4.50
2022-08-01T00:50:29.188Z,4.63
2022-08-01T00:53:18.937Z,5.55
2022-08-01T00:56:05.279Z,4.90
2022-08-01T00:58:51.092Z,4.38
2022-08-01T01:01:39.830Z,4.70
2022-08-01T01:04:26.116Z,3.55
2022-08-01T01:07:34.637Z,4.68
2022-08-01T01:10:41.509Z,4.88
2022-08-01T01:13:49.581Z,5.78
2022-08-01T01:16:40.993Z,4.03
2022-08-01T01:19:31.289Z,4.80
2022-08-01T01:22:23.079Z,5.07
2022-08-01T01:25:24.060Z,4.35
2022-08-01T01:28:28.968Z,5.25
2022-08-01T01:31:15.682Z,5.03
2022-08-01T01:34:05.329Z,5.07
2022-08-01T01:36:55.025Z,3.78
2022-08-01T01:39:45.383Z,4.22
2022-08-01T01:42:40.990Z,4.43
2022-08-01T01:45:27.376Z,3.65
2022-08-01T01:48:17.892Z,2.90
2022-08-01T01:51:05.455Z,3.67
2022-08-01T01:53:53.739Z,3.45
2022-08-01T01:56:49.544Z,3.63
2022-08-01T01:59:39.439Z,3.63
2022-08-01T02:02:25.939Z,3.03
2022-08-01T02:05:13.794Z,2.90
2022-08-01T02:07:59.862Z,2.30
2022-08-01T02:11:07.409Z,2.65
2022-08-01T02:14:02.595Z,2.45
2022-08-01T02:16:52.005Z,2.75
2022-08-01T02:19:38.863Z,1.90
2022-08-01T02:22:33.519Z,1.95
2022-08-01T02:25:30.125Z,2.22
2022-08-01T02:28:26.329Z,1.90
2022-08-01T02:31:17.735Z,1.92
2022-08-01T02:34:10.400Z,1.88
2022-08-01T02:36:58.227Z,2.20
2022-08-01T02:39:45.144Z,1.80
2022-08-01T02:42:32.214Z,1.98
2022-08-01T02:45:21.641Z,1.63
2022-08-01T02:48:14.116Z,1.60
2022-08-01T02:51:02.127Z,1.67
2022-08-01T02:53:51.533Z,1.73
2022-08-01T02:56:39.174Z,1.27
2022-08-01T02:59:27.332Z,1.40
2022-08-01T03:02:15.082Z,1.45
2022-08-01T03:05:02.553Z,1.38
2022-08-01T03:07:49.349Z,1.45
2022-08-01T03:10:37.756Z,1.40
2022-08-01T03:13:24.733Z,1.45
2022-08-01T03:16:12.968Z,1.50
2022-08-01T03:18:59.673Z,1.50
2022-08-01T03:21:46.356Z,1.80
2022-08-01T03:24:33.237Z,1.90
2022-08-01T03:27:23.325Z,1.80
2022-08-01T03:30:10.291Z,1.70
2022-08-01T03:32:56.552Z,2.22
2022-08-01T03:35:48.942Z,2.17
2022-08-01T03:38:39.114Z,2.15
2022-08-01T03:41:27.999Z,2.33
2022-08-01T03:44:21.374Z,2.35
2022-08-01T03:47:11.103Z,1.90
2022-08-01T03:49:58.745Z,2.55
2022-08-01T03:52:47.455Z,2.38
2022-08-01T03:55:34.108Z,2.20
2022-08-01T03:58:21.046Z,2.88
2022-08-01T04:01:15.796Z,2.45
2022-08-01T04:04:02.596Z,2.53
2022-08-01T04:06:51.594Z,2.35
2022-08-01T04:09:37.347Z,2.58
2022-08-01T04:12:23.000Z,2.65
2022-08-01T04:15:09.201Z,2.80
2022-08-01T04:17:55.153Z,3.05
2022-08-01T04:20:40.843Z,2.75
2022-08-01T04:23:28.558Z,2.97
2022-08-01T04:26:16.992Z,2.85
2022-08-01T04:29:06.209Z,3.08
2022-08-01T04:31:55.623Z,3.45
2022-08-01T04:34:42.809Z,3.42
2022-08-01T04:37:30.137Z,3.25
2022-08-01T04:40:17.333Z,3.78
2022-08-01T04:43:04.143Z,3.85
2022-08-01T04:45:51.613Z,4.20
2022-08-01T04:48:39.770Z,3.88
2022-08-01T04:51:25.462Z,3.63
2022-08-01T04:54:11.016Z,4.13
2022-08-01T04:57:03.511Z,4.22
2022-08-01T04:59:50.576Z,4.40
2022-08-01T05:02:36.530Z,2.58
2022-08-01T05:05:22.418Z,4.78
2022-08-01T05:08:07.993Z,2.83
2022-08-01T05:10:53.896Z,4.32
2022-08-01T05:13:39.905Z,4.82
2022-08-01T05:16:25.742Z,4.45
2022-08-01T05:19:11.246Z,4.18
2022-08-01T05:22:00.191Z,3.63
2022-08-01T05:24:47.306Z,4.03
2022-08-01T05:27:40.383Z,3.90
2022-08-01T05:30:25.948Z,3.65
2022-08-01T05:33:11.377Z,3.78
2022-08-01T05:35:57.000Z,3.75
2022-08-01T05:38:42.778Z,3.63
2022-08-01T05:41:28.604Z,3.42
2022-08-01T05:44:14.485Z,3.30
2022-08-01T05:46:59.945Z,3.78
2022-08-01T05:49:46.406Z,3.75
2022-08-01T05:52:32.016Z,2.72
2022-08-01T05:55:17.501Z,3.15
2022-08-01T05:58:03.782Z,3.30
2022-08-01T06:00:49.521Z,3.80
2022-08-01T06:03:35.065Z,3.47
2022-08-01T06:06:25.224Z,2.72
2022-08-01T06:09:11.349Z,3.60
2022-08-01T06:11:56.729Z,3.60
2022-08-01T06:14:42.260Z,3.53
2022-08-01T06:17:27.786Z,2.65
2022-08-01T06:20:13.444Z,3.25
2022-08-01T06:22:59.886Z,3.13
2022-08-01T06:25:46.663Z,3.38
2022-08-01T06:28:32.295Z,3.47
2022-08-01T06:31:17.904Z,3.75
2022-08-01T06:34:03.510Z,3.63
2022-08-01T06:36:49.442Z,3.10
2022-08-01T06:39:34.905Z,3.53
2022-08-01T06:42:20.492Z,3.47
2022-08-01T06:45:07.632Z,2.95
2022-08-01T06:47:53.418Z,2.97
2022-08-01T06:50:39.250Z,3.55
2022-08-01T06:53:24.851Z,3.47
2022-08-01T06:56:10.542Z,3.30
2022-08-01T06:59:01.745Z,3.20
2022-08-01T07:01:47.276Z,3.30
2022-08-01T07:04:33.185Z,3.33
2022-08-01T07:07:18.801Z,3.10
2022-08-01T07:10:05.091Z,2.67
2022-08-01T07:12:50.679Z,2.25
2022-08-01T07:15:36.285Z,1.80
2022-08-01T07:18:21.875Z,2.20
2022-08-01T07:21:38.277Z,1.88
2022-08-01T07:24:19.606Z,2.05
2022-08-01T07:27:24.394Z,1.75
2022-08-01T07:30:12.307Z,1.40
2022-08-01T07:32:58.268Z,1.30
2022-08-01T07:35:44.112Z,1.13
2022-08-01T07:38:29.630Z,1.13
2022-08-01T07:41:15.334Z,1.67
2022-08-01T07:44:04.710Z,1.35
2022-08-01T07:46:50.921Z,1.38
2022-08-01T07:49:40.457Z,1.25
2022-08-01T07:52:27.948Z,1.20
2022-08-01T07:55:16.712Z,1.33
2022-08-01T07:58:02.790Z,1.30
2022-08-01T08:00:48.485Z,1.25
2022-08-01T08:03:33.953Z,1.75
2022-08-01T08:06:19.386Z,1.42
2022-08-01T08:09:04.882Z,1.20
2022-08-01T08:11:50.581Z,1.30
2022-08-01T08:14:36.610Z,1.00
2022-08-01T08:17:22.398Z,1.50
2022-08-01T08:20:09.583Z,1.15
2022-08-01T08:22:56.456Z,1.15
2022-08-01T08:25:42.001Z,1.33
2022-08-01T08:28:28.298Z,1.20
2022-08-01T08:31:24.627Z,1.30
2022-08-01T08:34:11.899Z,1.60
2022-08-01T08:36:59.355Z,1.30
2022-08-01T08:39:45.172Z,1.65
2022-08-01T08:42:30.946Z,1.30
2022-08-01T08:45:16.566Z,1.45
2022-08-01T08:48:02.969Z,1.40
2022-08-01T08:50:49.960Z,1.50
2022-08-01T08:53:37.123Z,1.42
2022-08-01T08:56:25.506Z,1.33
2022-08-01T08:59:14.894Z,1.20
2022-08-01T09:02:00.742Z,1.35
2022-08-01T09:04:49.577Z,1.20
2022-08-01T09:07:35.967Z,1.20
2022-08-01T09:10:22.088Z,1.38
2022-08-01T09:13:13.961Z,1.30
2022-08-01T09:15:59.997Z,1.50
2022-08-01T09:18:45.897Z,1.42
2022-08-01T09:21:40.145Z,1.20
2022-08-01T09:24:30.594Z,1.20
2022-08-01T09:27:25.010Z,1.42
2022-08-01T09:30:23.287Z,1.30
2022-08-01T09:33:17.981Z,1.20
2022-08-01T09:36:07.569Z,1.20
2022-08-01T09:39:13.997Z,1.00
2022-08-01T09:42:18.980Z,1.35
2022-08-01T09:45:07.221Z,0.98
2022-08-01T09:47:53.008Z,1.20
2022-08-01T09:50:46.116Z,1.00
2022-08-01T09:53:50.985Z,1.02
2022-08-01T09:56:43.402Z,1.25
2022-08-01T09:59:57.290Z,0.90
2022-08-01T10:02:44.279Z,1.30
2022-08-01T10:05:37.091Z,1.13
2022-08-01T10:08:24.340Z,1.10
2022-08-01T10:11:16.672Z,0.90
2022-08-01T10:14:03.377Z,0.90
2022-08-01T10:16:52.943Z,1.00
2022-08-01T10:19:42.441Z,1.05
2022-08-01T10:22:32.066Z,0.90
2022-08-01T10:25:42.509Z,1.02
2022-08-01T10:28:32.466Z,1.10
2022-08-01T10:31:20.411Z,1.08
2022-08-01T10:34:19.520Z,0.90
2022-08-01T10:37:09.754Z,1.00
2022-08-01T10:40:27.301Z,1.00
2022-08-01T10:43:02.633Z,1.00
2022-08-01T10:45:48.215Z,1.00
2022-08-01T10:48:36.727Z,1.00
2022-08-01T10:51:27.035Z,1.38
2022-08-01T10:54:28.968Z,0.88
2022-08-01T10:57:18.657Z,1.30
2022-08-01T11:00:09.522Z,1.10
2022-08-01T11:03:04.738Z,1.00
2022-08-01T11:05:54.062Z,1.42
2022-08-01T11:08:40.237Z,1.17
2022-08-01T11:11:27.797Z,0.98
2022-08-01T11:14:14.989Z,1.15
2022-08-01T11:17:38.060Z,1.02
2022-08-01T11:20:33.847Z,1.17
2022-08-01T11:23:20.282Z,1.17
2022-08-01T11:26:10.562Z,1.48
2022-08-01T11:29:22.567Z,1.48
2022-08-01T11:32:28.247Z,1.33
2022-08-01T11:35:17.130Z,1.20
2022-08-01T11:38:31.103Z,1.23
2022-08-01T11:41:18.765Z,1.35
2022-08-01T11:44:11.947Z,1.17
2022-08-01T11:47:07.180Z,1.27
2022-08-01T11:49:57.086Z,1.30
2022-08-01T11:52:46.538Z,1.00
2022-08-01T11:55:33.015Z,1.45
2022-08-01T11:58:27.758Z,1.42
2022-08-01T12:01:18.037Z,1.23
2022-08-01T12:04:03.761Z,1.63
2022-08-01T12:06:49.329Z,1.15
2022-08-01T12:09:36.868Z,1.88
2022-08-01T12:12:22.371Z,1.60
2022-08-01T12:15:10.496Z,1.27
2022-08-01T12:18:01.451Z,1.35
2022-08-01T12:20:57.123Z,1.67
2022-08-01T12:23:42.872Z,1.52
2022-08-01T12:26:43.237Z,1.58
2022-08-01T12:29:37.237Z,1.50
2022-08-01T12:32:27.560Z,1.42
2022-08-01T12:35:25.631Z,2.25
2022-08-01T12:38:27.887Z,2.03
2022-08-01T12:41:14.338Z,1.85
2022-08-01T12:44:00.484Z,2.15
2022-08-01T12:46:46.496Z,2.35
2022-08-01T12:49:33.900Z,2.17
2022-08-01T12:52:23.268Z,1.67
2022-08-01T12:55:18.685Z,2.22
2022-08-01T12:58:16.160Z,2.65
2022-08-01T13:01:10.504Z,1.65
2022-08-01T13:04:07.356Z,1.83
2022-08-01T13:06:56.823Z,1.92
2022-08-01T13:09:53.898Z,2.35
2022-08-01T13:12:42.068Z,1.90
2022-08-01T13:15:32.617Z,1.70
2022-08-01T13:18:29.830Z,2.10
2022-08-01T13:21:18.105Z,2.10
2022-08-01T13:24:11.977Z,1.95
2022-08-01T13:27:01.603Z,2.13
2022-08-01T13:29:50.804Z,1.48
2022-08-01T13:32:36.191Z,2.20
2022-08-01T13:35:21.802Z,2.00
2022-08-01T13:38:07.614Z,1.58
2022-08-01T13:40:59.513Z,2.40
2022-08-01T13:43:58.065Z,1.55
2022-08-01T13:46:49.351Z,2.00
2022-08-01T13:49:37.365Z,2.00
2022-08-01T13:52:24.043Z,1.80
2022-08-01T13:55:11.081Z,1.80
2022-08-01T13:57:56.558Z,1.75
2022-08-01T14:00:42.080Z,1.80
2022-08-01T14:03:33.510Z,2.25
2022-08-01T14:06:23.324Z,1.85
2022-08-01T14:09:17.854Z,1.80
2022-08-01T14:12:09.788Z,2.00
2022-08-01T14:14:55.483Z,1.98
2022-08-01T14:17:47.849Z,2.08
2022-08-01T14:20:34.879Z,2.20
2022-08-01T14:23:20.532Z,2.28
2022-08-01T14:26:12.061Z,2.25
2022-08-01T14:28:58.361Z,1.83
2022-08-01T14:31:44.315Z,2.13
2022-08-01T14:34:30.010Z,1.70
2022-08-01T14:37:15.568Z,1.90
2022-08-01T14:40:08.641Z,2.15
2022-08-01T14:42:54.900Z,2.40
2022-08-01T14:45:40.585Z,2.13
2022-08-01T14:48:26.497Z,2.25
2022-08-01T14:51:12.228Z,1.92
2022-08-01T14:53:57.701Z,2.58
2022-08-01T14:56:43.611Z,2.42
2022-08-01T14:59:29.672Z,2.15
2022-08-01T15:02:18.138Z,2.15
2022-08-01T15:05:04.801Z,2.00
2022-08-01T15:07:52.521Z,1.90
2022-08-01T15:10:39.616Z,1.90
2022-08-01T15:13:25.289Z,2.40
2022-08-01T15:16:11.882Z,2.05
2022-08-01T15:18:57.820Z,1.83
2022-08-01T15:21:43.322Z,2.00
2022-08-01T15:24:28.905Z,2.58
2022-08-01T15:27:14.738Z,2.45
2022-08-01T15:30:00.301Z,2.13
2022-08-01T15:32:46.057Z,2.42
2022-08-01T15:35:32.626Z,2.58
2022-08-01T15:38:20.222Z,2.42
2022-08-01T15:41:06.160Z,2.28
2022-08-01T15:43:56.089Z,2.17
2022-08-01T15:46:42.069Z,2.35
2022-08-01T15:49:28.470Z,2.42
2022-08-01T15:52:21.301Z,3.00
2022-08-01T15:55:09.124Z,2.58
2022-08-01T15:57:54.846Z,2.72
2022-08-01T16:00:40.519Z,3.22
2022-08-01T16:03:27.695Z,3.30
2022-08-01T16:06:13.482Z,1.85
2022-08-01T16:08:59.509Z,2.25
2022-08-01T16:11:50.868Z,2.85
2022-08-01T16:14:37.238Z,2.72
2022-08-01T16:17:22.710Z,2.15
2022-08-01T16:20:09.155Z,2.33
2022-08-01T16:22:54.665Z,2.08
2022-08-01T16:25:40.326Z,1.90
2022-08-01T16:28:26.468Z,2.17
2022-08-01T16:31:15.735Z,2.22
2022-08-01T16:34:14.555Z,2.20
2022-08-01T16:37:01.286Z,2.00
2022-08-01T16:39:47.455Z,1.80
2022-08-01T16:42:33.253Z,2.08
2022-08-01T16:45:21.277Z,2.05
2022-08-01T16:48:06.997Z,2.10
2022-08-01T16:50:58.144Z,1.70
2022-08-01T16:53:43.932Z,2.13
2022-08-01T16:56:29.453Z,2.00
2022-08-01T16:59:14.852Z,1.95
2022-08-01T17:02:02.386Z,1.73
2022-08-01T17:04:48.295Z,1.80
2022-08-01T17:07:34.232Z,2.40
2022-08-01T17:10:20.458Z,2.00
2022-08-01T17:13:06.416Z,1.70
2022-08-01T17:15:53.323Z,1.80
2022-08-01T17:18:38.722Z,1.98
2022-08-01T17:21:24.213Z,1.90
2022-08-01T17:24:09.903Z,1.65
2022-08-01T17:26:57.058Z,1.88
2022-08-01T17:29:44.012Z,1.77
2022-08-01T17:32:30.056Z,1.65
2022-08-01T17:35:16.750Z,1.60
2022-08-01T17:38:02.579Z,1.80
2022-08-01T17:40:48.012Z,1.60
2022-08-01T17:43:33.595Z,1.95
2022-08-01T17:46:19.361Z,1.60
2022-08-01T17:49:06.022Z,1.70
2022-08-01T17:51:51.745Z,1.83
2022-08-01T17:54:37.411Z,1.92
2022-08-01T17:57:22.872Z,2.05
2022-08-01T18:00:09.522Z,1.80
2022-08-01T18:02:54.986Z,1.55
2022-08-01T18:05:41.447Z,2.03
2022-08-01T18:08:30.063Z,2.38
2022-08-01T18:11:17.037Z,3.22
2022-08-01T18:14:02.628Z,2.70
2022-08-01T18:16:48.044Z,3.47
2022-08-01T18:19:33.502Z,5.70
2022-08-01T18:22:31.621Z,3.83
2022-08-01T18:25:20.121Z,6.15
2022-08-01T18:28:29.389Z,4.50
2022-08-01T18:31:13.120Z,4.65
2022-08-01T18:33:59.107Z,6.38
2022-08-01T18:36:44.679Z,4.28
2022-08-01T18:39:31.875Z,3.92
2022-08-01T18:42:18.515Z,4.63
2022-08-01T18:45:04.541Z,3.40
2022-08-01T18:47:50.148Z,3.95
2022-08-01T18:50:35.756Z,4.30
2022-08-01T18:53:23.875Z,3.58
2022-08-01T18:56:12.963Z,4.82
2022-08-01T18:58:58.806Z,4.03
2022-08-01T19:01:44.938Z,2.97
2022-08-01T19:04:30.610Z,4.05
2022-08-01T19:07:33.464Z,3.30
2022-08-01T19:10:21.784Z,3.05
2022-08-01T19:13:08.020Z,2.45
2022-08-01T19:15:53.961Z,2.65
2022-08-01T19:18:41.067Z,2.97
2022-08-01T19:21:26.721Z,3.33
2022-08-01T19:24:23.647Z,2.95
2022-08-01T19:27:12.460Z,2.72
2022-08-01T19:30:01.272Z,2.50
2022-08-01T19:32:48.774Z,2.30
2022-08-01T19:35:34.815Z,2.40
2022-08-01T19:38:21.086Z,2.28
2022-08-01T19:41:07.682Z,2.25
2022-08-01T19:44:04.625Z,2.47
2022-08-01T19:46:52.016Z,1.90
2022-08-01T19:49:38.574Z,2.08
2022-08-01T19:52:26.694Z,2.05
2022-08-01T19:55:13.088Z,1.80
2022-08-01T19:58:24.633Z,1.85
2022-08-01T20:01:04.113Z,1.73
2022-08-01T20:03:51.336Z,2.03
2022-08-01T20:06:36.824Z,1.60
2022-08-01T20:09:23.085Z,1.83
2022-08-01T20:12:09.161Z,1.95
2022-08-01T20:14:55.454Z,2.00
2022-08-01T20:17:41.660Z,1.90
2022-08-01T20:20:28.025Z,2.00
2022-08-01T20:23:18.089Z,1.75
2022-08-01T20:26:04.821Z,1.67
2022-08-01T20:28:51.609Z,2.08
2022-08-01T20:31:43.279Z,2.08
2022-08-01T20:34:33.961Z,1.80
2022-08-01T20:38:04.156Z,2.20
2022-08-01T20:40:27.051Z,2.20
2022-08-01T20:43:13.851Z,2.25
2022-08-01T20:46:00.072Z,2.30
2022-08-01T20:48:47.581Z,1.95
2022-08-01T20:51:38.110Z,1.67
2022-08-01T20:54:29.461Z,2.10
2022-08-01T20:57:28.089Z,2.15
2022-08-01T21:00:14.034Z,1.83
2022-08-01T21:03:10.369Z,2.28
2022-08-01T21:06:00.955Z,2.30
2022-08-01T21:08:49.872Z,2.30
2022-08-01T21:11:50.362Z,2.15
2022-08-01T21:14:52.837Z,1.95
2022-08-01T21:17:57.963Z,1.98
2022-08-01T21:20:48.742Z,2.00
2022-08-01T21:23:55.602Z,1.88
2022-08-01T21:26:43.192Z,1.98
2022-08-01T21:29:32.462Z,1.90
2022-08-01T21:32:20.856Z,2.08
2022-08-01T21:35:16.509Z,2.05
2022-08-01T21:38:05.812Z,1.95
2022-08-01T21:40:52.799Z,2.00
2022-08-01T21:43:41.259Z,2.05
2022-08-01T21:46:30.332Z,1.98
2022-08-01T21:49:16.046Z,2.20
2022-08-01T21:52:08.641Z,2.10
2022-08-01T21:55:00.016Z,1.85
2022-08-01T21:58:19.642Z,2.13
2022-08-01T22:01:51.445Z,1.67
2022-08-01T22:04:43.647Z,2.33
2022-08-01T22:07:34.208Z,2.58
2022-08-01T22:10:21.072Z,2.15
2022-08-01T22:13:07.911Z,1.80
2022-08-01T22:15:57.105Z,1.98
2022-08-01T22:18:44.392Z,2.08
2022-08-01T22:21:31.269Z,2.60
2022-08-01T22:24:16.947Z,1.95
2022-08-01T22:27:04.523Z,2.00
2022-08-01T22:29:59.962Z,2.30
2022-08-01T22:33:15.584Z,2.20
2022-08-01T22:35:52.930Z,2.10
2022-08-01T22:38:38.818Z,2.40
2022-08-01T22:41:31.383Z,2.05
2022-08-01T22:44:55.838Z,2.22
2022-08-01T22:48:05.520Z,2.10
2022-08-01T22:51:06.858Z,2.17
2022-08-01T22:54:00.921Z,2.13
2022-08-01T22:56:50.632Z,2.15
2022-08-01T22:59:57.468Z,1.90
2022-08-01T23:02:47.855Z,2.33
2022-08-01T23:05:40.480Z,1.98
2022-08-01T23:08:33.321Z,2.38
2022-08-01T23:11:21.248Z,2.35
2022-08-01T23:14:08.496Z,2.15
2022-08-01T23:16:54.738Z,1.55
2022-08-01T23:19:41.754Z,2.40
2022-08-01T23:22:33.727Z,2.42
2022-08-01T23:25:19.298Z,2.38
2022-08-01T23:28:06.409Z,2.22
2022-08-01T23:30:52.779Z,2.28
2022-08-01T23:33:38.219Z,2.28
2022-08-01T23:36:23.744Z,2.00
2022-08-01T23:39:09.430Z,2.40
2022-08-01T23:41:59.546Z,2.28
2022-08-01T23:44:47.101Z,2.17
2022-08-01T23:47:32.903Z,2.05
2022-08-01T23:50:18.615Z,1.75
2022-08-01T23:53:04.929Z,2.20
2022-08-01T23:55:50.489Z,2.50
2022-08-01T23:58:39.422Z,2.63
